Time;durP1;ratioP1;P1;durP2;ratioP2;P2;SDS_P1;SDS_P2;PMS_P1;PMS_P2;Temp;Humidity;BMP_temperature;BMP_pressure;BME280_temperature;BME280_humidity;BME280_pressure;Samples;Min_cycle;Max_cycle;Signal;HPM_P1;HPM_P2
2022/06/08 00:01:00;;;;;;;1.30;1.20;;;14.60;99.90;;;;;;4986467;28;20467;-87
2022/06/08 00:03:36;;;;;;;4.00;1.48;;;14.50;99.90;;;;;;4990070;28;20046;-87
2022/06/08 00:06:02;;;;;;;7.03;1.92;;;14.50;99.90;;;;;;4992918;28;20054;-88
2022/06/08 00:08:28;;;;;;;5.70;1.65;;;14.50;99.90;;;;;;4992237;28;20053;-88
2022/06/08 00:10:54;;;;;;;10.10;1.60;;;14.50;99.90;;;;;;5015080;23;20011;-89
2022/06/08 00:13:20;;;;;;;1.75;1.17;;;14.50;99.90;;;;;;5053185;28;20083;-88
2022/06/08 00:15:45;;;;;;;7.00;1.67;;;14.40;99.90;;;;;;5054278;28;20024;-88
2022/06/08 00:18:11;;;;;;;4.85;1.48;;;14.40;99.90;;;;;;5053771;28;20040;-88
2022/06/08 00:20:38;;;;;;;6.40;1.50;;;14.40;99.90;;;;;;5046449;28;20390;-90
2022/06/08 00:23:05;;;;;;;2.95;1.55;;;14.40;99.90;;;;;;5032409;28;20112;-91
2022/06/08 00:25:31;;;;;;;2.03;1.45;;;14.40;99.90;;;;;;5049928;28;20021;-91
2022/06/08 00:27:57;;;;;;;5.80;2.38;;;14.40;99.90;;;;;;5034770;28;20104;-90
2022/06/08 00:30:23;;;;;;;6.75;1.75;;;14.30;99.90;;;;;;5037721;28;20120;-91
2022/06/08 00:32:48;;;;;;;3.83;1.85;;;14.40;99.90;;;;;;5040525;28;20049;-91
2022/06/08 00:35:14;;;;;;;4.60;1.63;;;14.40;99.90;;;;;;5030221;28;20671;-89
2022/06/08 00:37:41;;;;;;;3.38;1.40;;;14.30;99.90;;;;;;5019204;28;20053;-91
2022/06/08 00:40:09;;;;;;;2.65;1.45;;;14.40;99.90;;;;;;5019183;28;20053;-90
2022/06/08 00:42:35;;;;;;;1.80;1.35;;;14.40;99.90;;;;;;5041596;28;20068;-89
2022/06/08 00:45:07;;;;;;;2.08;1.30;;;14.40;99.90;;;;;;5017574;28;20049;-89
2022/06/08 00:47:50;;;;;;;1.55;1.20;;;14.30;99.90;;;;;;5039762;28;20032;-88
2022/06/08 00:50:21;;;;;;;2.50;1.88;;;14.30;99.90;;;;;;5034860;28;20025;-87
2022/06/08 00:52:48;;;;;;;2.42;1.52;;;14.40;99.90;;;;;;5022676;28;20425;-87
2022/06/08 00:55:18;;;;;;;1.55;1.40;;;14.40;99.90;;;;;;5025083;28;20039;-87
2022/06/08 00:57:48;;;;;;;4.25;1.30;;;14.40;99.90;;;;;;5026369;28;20059;-89
2022/06/08 01:00:25;;;;;;;2.15;1.48;;;14.40;99.90;;;;;;5023231;28;20383;-90
2022/06/08 01:02:50;;;;;;;2.40;1.20;;;14.40;99.90;;;;;;5040691;28;20037;-92
2022/06/08 01:05:40;;;;;;;2.38;2.00;;;14.40;99.90;;;;;;5036705;28;20465;-91
2022/06/08 01:08:25;;;;;;;2.38;1.30;;;14.40;99.90;;;;;;5016819;28;20024;-89
2022/06/08 01:10:55;;;;;;;3.25;1.60;;;14.40;99.90;;;;;;5048483;22;20017;-91
2022/06/08 01:13:22;;;;;;;1.70;1.40;;;14.40;99.90;;;;;;5021030;28;20057;-93
2022/06/08 01:15:48;;;;;;;4.55;1.27;;;14.40;99.90;;;;;;5022205;28;20025;-93
2022/06/08 01:18:14;;;;;;;1.48;1.02;;;14.40;99.90;;;;;;5021677;28;20100;-93
2022/06/08 01:20:47;;;;;;;2.83;1.05;;;14.50;99.90;;;;;;5013419;28;20029;-90
2022/06/08 01:23:15;;;;;;;3.53;0.93;;;14.40;99.90;;;;;;4995173;28;20129;-91
2022/06/08 01:26:06;;;;;;;1.85;0.80;;;14.40;99.90;;;;;;4995264;28;20030;-92
2022/06/08 01:29:03;;;;;;;1.60;0.93;;;14.40;99.90;;;;;;4990967;28;20022;-93
2022/06/08 01:32:01;;;;;;;1.10;0.80;;;14.40;99.90;;;;;;4964664;28;20034;-93
2022/06/08 01:35:11;;;;;;;4.55;1.10;;;14.50;99.90;;;;;;4995653;28;20057;-92
2022/06/08 01:37:39;;;;;;;2.08;1.20;;;14.50;99.90;;;;;;4977953;28;20031;-92
2022/06/08 01:40:38;;;;;;;2.75;1.15;;;14.50;99.90;;;;;;4988640;28;20030;-93
2022/06/08 01:43:19;;;;;;;3.35;1.40;;;14.50;99.90;;;;;;4990561;28;20057;-93
2022/06/08 01:46:02;;;;;;;1.35;1.10;;;14.50;99.90;;;;;;4989938;28;20050;-94
2022/06/08 01:48:43;;;;;;;1.05;0.95;;;14.50;99.90;;;;;;4997088;28;20534;-91
2022/06/08 01:51:29;;;;;;;0.85;0.80;;;14.50;99.90;;;;;;4988945;28;20084;-89
2022/06/08 01:54:13;;;;;;;1.30;1.00;;;14.50;99.90;;;;;;4989727;28;20018;-93
2022/06/08 01:56:57;;;;;;;0.88;0.88;;;14.60;99.90;;;;;;4989052;28;20357;-91
2022/06/08 01:59:51;;;;;;;1.75;1.25;;;14.60;99.90;;;;;;4977399;28;20022;-90
2022/06/08 02:02:35;;;;;;;1.90;1.10;;;14.60;99.90;;;;;;4994806;28;20133;-92
2022/06/08 02:05:31;;;;;;;1.10;1.00;;;14.60;99.90;;;;;;4994973;28;20031;-91
2022/06/08 02:08:25;;;;;;;2.30;1.50;;;14.60;99.90;;;;;;4994548;28;20100;-91
2022/06/08 02:10:56;;;;;;;3.13;1.52;;;14.60;99.90;;;;;;5016853;23;20027;-86
2022/06/08 02:13:28;;;;;;;3.70;1.80;;;14.70;99.90;;;;;;5011407;28;20046;-87
2022/06/08 02:16:07;;;;;;;5.07;1.40;;;14.70;99.90;;;;;;5013901;28;20022;-87
2022/06/08 02:19:05;;;;;;;3.00;1.40;;;14.70;99.90;;;;;;5014048;28;20071;-88
2022/06/08 02:21:41;;;;;;;3.53;1.23;;;14.70;99.90;;;;;;5030242;28;20021;-90
2022/06/08 02:24:26;;;;;;;1.85;1.25;;;14.70;99.90;;;;;;5009638;28;20035;-90
2022/06/08 02:27:07;;;;;;;3.67;1.25;;;14.70;99.90;;;;;;5012919;28;20030;-90
2022/06/08 02:29:41;;;;;;;2.85;1.45;;;14.70;99.90;;;;;;4995546;28;20052;-90
2022/06/08 02:35:01;;;;;;;2.60;2.13;;;14.70;99.90;;;;;;5019893;28;20037;-91
2022/06/08 02:37:33;;;;;;;5.15;2.22;;;14.70;99.90;;;;;;4995960;28;20022;-89
2022/06/08 02:40:14;;;;;;;5.75;1.95;;;14.70;99.90;;;;;;5013180;28;20022;-89
2022/06/08 02:42:57;;;;;;;6.03;2.00;;;14.70;99.90;;;;;;5001415;28;20548;-88
2022/06/08 02:45:28;;;;;;;3.00;1.50;;;14.70;99.90;;;;;;5022901;28;20475;-87
2022/06/08 02:48:00;;;;;;;5.60;1.70;;;14.70;99.90;;;;;;5021310;28;20067;-85
2022/06/08 02:50:27;;;;;;;4.72;1.30;;;14.70;99.90;;;;;;5014273;28;20034;-89
2022/06/08 02:53:09;;;;;;;3.97;1.63;;;14.70;99.90;;;;;;5029144;28;20032;-88
2022/06/08 02:55:34;;;;;;;;;;;14.70;99.90;;;;;;5017574;28;20018;-90
2022/06/08 02:58:08;;;;;;;6.97;1.52;;;14.70;99.90;;;;;;4999398;28;19905;-91
2022/06/08 03:00:45;;;;;;;4.05;1.77;;;14.80;99.90;;;;;;5023218;28;20570;-92
2022/06/08 03:03:31;;;;;;;4.55;1.60;;;14.80;99.90;;;;;;5016813;28;20315;-88
2022/06/08 03:06:15;;;;;;;3.20;1.27;;;14.80;99.90;;;;;;5024091;28;20030;-88
2022/06/08 03:08:47;;;;;;;4.28;1.27;;;14.80;99.90;;;;;;5002589;28;20551;-89
2022/06/08 03:11:14;;;;;;;4.35;1.08;;;14.80;99.90;;;;;;5064870;22;20049;-92
2022/06/08 03:13:48;;;;;;;5.85;1.20;;;14.80;99.90;;;;;;5067806;28;20029;-91
2022/06/08 03:16:33;;;;;;;1.23;0.80;;;14.80;99.90;;;;;;5046381;28;20017;-91
2022/06/08 03:18:59;;;;;;;2.22;1.00;;;14.80;99.90;;;;;;5056085;28;20028;-88
2022/06/08 03:21:25;;;;;;;1.02;0.82;;;14.80;99.90;;;;;;5048903;28;20018;-89
2022/06/08 03:23:52;;;;;;;1.88;0.82;;;14.80;99.90;;;;;;5021966;28;20038;-92
2022/06/08 03:26:21;;;;;;;1.98;0.90;;;14.80;99.90;;;;;;5030034;28;20017;-92
2022/06/08 03:28:47;;;;;;;2.38;0.80;;;14.80;99.90;;;;;;5028860;28;20033;-93
2022/06/08 03:31:13;;;;;;;0.55;0.55;;;14.80;99.90;;;;;;5037243;28;20044;-94
2022/06/08 03:33:39;;;;;;;1.95;0.75;;;14.80;99.90;;;;;;5036317;28;20375;-92
2022/06/08 03:36:06;;;;;;;3.53;0.60;;;14.80;99.90;;;;;;5036727;28;20034;-93
2022/06/08 03:38:32;;;;;;;0.60;0.50;;;14.80;99.90;;;;;;5022859;28;20033;-93
2022/06/08 03:40:58;;;;;;;1.40;0.60;;;14.80;99.90;;;;;;5036195;28;20036;-92
2022/06/08 03:43:24;;;;;;;0.70;0.70;;;14.80;99.90;;;;;;5024744;28;20044;-89
2022/06/08 03:45:58;;;;;;;1.85;0.70;;;14.90;99.90;;;;;;5035789;28;20032;-91
2022/06/08 03:48:24;;;;;;;0.55;0.52;;;14.90;99.90;;;;;;5035787;28;20474;-93
2022/06/08 03:50:54;;;;;;;0.68;0.50;;;14.80;99.90;;;;;;5039413;28;20377;-91
2022/06/08 03:53:27;;;;;;;0.50;0.50;;;14.90;99.90;;;;;;5037940;28;20057;-90
2022/06/08 03:55:54;;;;;;;0.50;0.50;;;14.90;99.90;;;;;;5035172;28;20087;-90
2022/06/08 03:58:21;;;;;;;0.43;0.40;;;14.90;99.90;;;;;;5034835;28;20470;-91
2022/06/08 04:00:47;;;;;;;2.30;0.80;;;14.90;99.90;;;;;;5020007;28;20029;-91
2022/06/08 04:03:14;;;;;;;2.13;0.50;;;14.90;99.90;;;;;;5030858;28;20080;-89
2022/06/08 04:05:39;;;;;;;0.60;0.60;;;14.90;99.90;;;;;;5034503;28;20021;-89
2022/06/08 04:08:06;;;;;;;1.20;0.60;;;14.90;99.90;;;;;;5034185;28;20104;-88
2022/06/08 04:10:32;;;;;;;2.78;0.98;;;14.90;99.90;;;;;;5034219;28;20057;-88
2022/06/08 04:12:58;;;;;;;2.35;1.02;;;14.90;99.90;;;;;;5090062;22;20599;-92
2022/06/08 04:15:43;;;;;;;2.38;1.10;;;14.90;99.90;;;;;;5058881;28;20021;-92
2022/06/08 04:18:21;;;;;;;2.85;1.13;;;14.90;99.90;;;;;;5057485;28;20025;-93
2022/06/08 04:20:52;;;;;;;2.80;1.33;;;15.00;99.90;;;;;;5056616;28;20078;-90
2022/06/08 04:23:19;;;;;;;2.33;1.50;;;15.00;99.90;;;;;;5036197;28;20546;-88
2022/06/08 04:25:45;;;;;;;6.43;1.50;;;15.00;99.90;;;;;;5053578;28;20078;-92
2022/06/08 04:28:15;;;;;;;4.90;2.05;;;15.00;99.90;;;;;;5040598;28;20013;-89
2022/06/08 04:30:41;;;;;;;2.75;1.58;;;14.90;99.90;;;;;;5053862;28;20095;-89
2022/06/08 04:33:07;;;;;;;3.63;1.95;;;15.00;99.90;;;;;;5054381;28;20482;-90
2022/06/08 04:35:33;;;;;;;4.22;1.50;;;15.00;99.90;;;;;;5038363;28;20375;-89
2022/06/08 04:37:59;;;;;;;3.92;1.90;;;15.00;99.90;;;;;;5054494;28;20032;-89
2022/06/08 04:40:26;;;;;;;4.35;1.40;;;15.00;99.90;;;;;;5037297;28;20025;-93
2022/06/08 04:42:53;;;;;;;2.90;1.60;;;15.00;99.90;;;;;;5035685;28;20033;-90
2022/06/08 04:45:19;;;;;;;4.78;1.90;;;15.00;99.90;;;;;;5053823;28;20344;-88
2022/06/08 04:47:44;;;;;;;4.22;2.15;;;15.10;99.90;;;;;;5053495;28;20032;-91
2022/06/08 04:50:11;;;;;;;9.38;2.90;;;15.10;99.90;;;;;;5036749;28;20026;-91
2022/06/08 04:52:37;;;;;;;6.22;1.95;;;15.10;99.90;;;;;;5035625;28;20017;-92
2022/06/08 04:55:05;;;;;;;4.72;1.73;;;15.10;99.90;;;;;;5053796;28;20036;-92
2022/06/08 04:57:34;;;;;;;4.03;1.60;;;15.10;99.90;;;;;;5053203;28;20416;-88
2022/06/08 05:00:00;;;;;;;4.05;1.75;;;15.10;99.90;;;;;;5028041;28;20033;-88
2022/06/08 05:02:44;;;;;;;3.95;2.22;;;15.10;99.90;;;;;;5053212;28;20470;-92
2022/06/08 05:05:12;;;;;;;5.68;2.60;;;15.10;99.90;;;;;;5053394;28;20531;-90
2022/06/08 05:07:39;;;;;;;3.13;1.63;;;15.10;99.90;;;;;;5034661;28;20024;-88
2022/06/08 05:10:05;;;;;;;4.05;2.17;;;15.10;99.90;;;;;;5046704;28;20028;-89
2022/06/08 05:12:31;;;;;;;3.42;1.88;;;15.10;99.90;;;;;;5078297;22;20523;-92
2022/06/08 05:14:57;;;;;;;5.95;2.78;;;15.10;99.90;;;;;;5074534;28;20026;-93
2022/06/08 05:17:23;;;;;;;5.43;2.72;;;15.10;99.90;;;;;;5057769;28;20028;-90
2022/06/08 05:19:49;;;;;;;9.45;3.25;;;15.10;99.90;;;;;;5056805;28;20024;-88
2022/06/08 05:22:14;;;;;;;14.35;3.13;;;15.10;99.90;;;;;;5063059;28;20021;-95
2022/06/08 05:24:40;;;;;;;7.30;2.85;;;15.10;99.90;;;;;;5035943;28;20112;-94
2022/06/08 05:27:06;;;;;;;7.05;2.92;;;15.10;99.90;;;;;;5053087;28;20371;-92
2022/06/08 05:29:31;;;;;;;8.07;2.58;;;15.20;99.90;;;;;;5053913;28;20104;-96
2022/06/08 05:31:57;;;;;;;6.75;2.42;;;15.20;99.90;;;;;;5054772;28;20086;-91
2022/06/08 05:34:24;;;;;;;2.92;2.10;;;15.20;99.90;;;;;;5054411;28;20025;-93
2022/06/08 05:36:50;;;;;;;8.07;2.55;;;15.20;99.90;;;;;;5053414;28;20478;-93
2022/06/08 05:39:16;;;;;;;5.18;2.85;;;15.20;99.90;;;;;;5053823;28;20028;-93
2022/06/08 05:41:41;;;;;;;6.97;2.22;;;15.30;99.90;;;;;;5053857;28;20025;-94
2022/06/08 05:44:07;;;;;;;6.97;2.45;;;15.30;99.90;;;;;;5026879;28;20096;-95
2022/06/08 05:46:33;;;;;;;9.95;2.70;;;15.30;99.90;;;;;;5041921;28;20028;-93
2022/06/08 05:48:58;;;;;;;6.95;2.78;;;15.30;99.90;;;;;;5049624;28;20060;-91
2022/06/08 05:51:24;;;;;;;10.27;3.35;;;15.40;99.90;;;;;;5052715;28;20033;-93
2022/06/08 05:53:50;;;;;;;10.07;3.30;;;15.30;99.90;;;;;;5053162;28;20024;-93
2022/06/08 05:56:15;;;;;;;4.93;3.15;;;15.30;99.90;;;;;;5052968;28;20024;-91
2022/06/08 05:58:41;;;;;;;9.85;3.28;;;15.30;99.90;;;;;;5053409;28;20021;-89
2022/06/08 06:01:07;;;;;;;11.05;3.53;;;15.30;99.90;;;;;;5054526;28;20021;-91
2022/06/08 06:03:33;;;;;;;12.52;3.00;;;15.40;99.90;;;;;;5055863;28;20108;-95
2022/06/08 06:05:59;;;;;;;9.13;3.25;;;15.40;99.90;;;;;;5054233;28;20063;-92
2022/06/08 06:08:25;;;;;;;10.60;3.58;;;15.40;99.90;;;;;;5048596;28;20024;-94
2022/06/08 06:13:26;;;;;;;8.65;3.40;;;15.50;99.90;;;;;;5052599;28;20049;-90
2022/06/08 06:15:51;;;;;;;11.75;3.63;;;15.50;99.90;;;;;;5071119;28;20025;-93
2022/06/08 06:18:17;;;;;;;9.10;3.17;;;15.60;99.90;;;;;;5078426;28;20020;-96
2022/06/08 06:20:44;;;;;;;7.97;3.45;;;15.70;99.90;;;;;;5084914;28;20097;-96
2022/06/08 06:23:10;;;;;;;16.10;3.60;;;15.70;99.90;;;;;;5060735;28;20442;-91
2022/06/08 06:25:35;;;;;;;7.35;2.63;;;15.70;99.90;;;;;;5040696;28;20086;-88
2022/06/08 06:28:01;;;;;;;13.05;3.28;;;15.80;99.90;;;;;;5035314;28;20029;-91
2022/06/08 06:30:27;;;;;;;11.20;3.35;;;15.90;99.90;;;;;;5029782;28;20049;-93
2022/06/08 06:32:52;;;;;;;7.20;2.35;;;16.00;99.90;;;;;;5056745;28;20039;-93
2022/06/08 06:35:25;;;;;;;7.30;3.05;;;16.10;99.90;;;;;;5053820;28;20105;-91
2022/06/08 06:37:52;;;;;;;10.52;3.03;;;16.20;99.90;;;;;;5058009;28;20028;-94
2022/06/08 06:40:18;;;;;;;6.57;2.70;;;16.20;99.90;;;;;;5065976;28;20025;-94
2022/06/08 06:42:44;;;;;;;6.70;2.40;;;16.30;99.90;;;;;;5062972;28;20080;-94
2022/06/08 06:45:11;;;;;;;9.32;2.80;;;16.40;99.90;;;;;;5066895;28;20021;-90
2022/06/08 06:47:37;;;;;;;6.43;2.13;;;16.60;99.90;;;;;;5067469;28;20026;-90
2022/06/08 06:50:05;;;;;;;4.70;2.50;;;16.70;99.90;;;;;;5051463;28;20087;-93
2022/06/08 06:52:32;;;;;;;3.55;2.38;;;16.90;99.90;;;;;;5048713;28;20022;-91
2022/06/08 06:54:58;;;;;;;11.15;3.53;;;16.90;99.90;;;;;;5051423;28;20055;-92
2022/06/08 06:57:24;;;;;;;6.57;3.10;;;17.00;99.90;;;;;;5048949;28;20022;-94
2022/06/08 06:59:50;;;;;;;7.40;3.25;;;17.00;99.90;;;;;;5058080;28;20025;-92
2022/06/08 07:02:19;;;;;;;6.65;2.90;;;17.00;99.90;;;;;;5056263;28;20024;-90
2022/06/08 07:04:46;;;;;;;10.15;3.50;;;17.00;99.90;;;;;;5061356;28;20021;-93
2022/06/08 07:07:12;;;;;;;6.30;3.22;;;17.00;99.90;;;;;;5059174;28;20086;-92
2022/06/08 07:09:38;;;;;;;7.22;2.70;;;17.00;99.90;;;;;;5054955;28;20516;-90
2022/06/08 07:12:05;;;;;;;7.38;3.10;;;16.90;99.90;;;;;;5063017;22;20037;-89
2022/06/08 07:14:31;;;;;;;5.25;2.60;;;17.10;99.90;;;;;;5023981;28;20030;-88
2022/06/08 07:16:56;;;;;;;9.93;2.60;;;17.30;99.90;;;;;;5021640;28;20068;-91
2022/06/08 07:19:22;;;;;;;5.15;2.85;;;17.50;99.90;;;;;;5019312;28;20080;-93
2022/06/08 07:21:49;;;;;;;5.57;2.20;;;17.70;99.90;;;;;;5017512;28;20029;-90
2022/06/08 07:24:18;;;;;;;9.65;3.70;;;17.80;99.90;;;;;;5021194;28;20068;-88
2022/06/08 07:26:44;;;;;;;8.23;2.80;;;17.80;99.90;;;;;;4995896;28;20022;-89
2022/06/08 07:29:10;;;;;;;5.30;2.05;;;17.80;99.90;;;;;;5017956;28;20463;-94
2022/06/08 07:31:36;;;;;;;3.80;1.98;;;17.80;99.90;;;;;;5011783;28;20829;-90
2022/06/08 07:34:02;;;;;;;9.10;2.40;;;17.70;99.90;;;;;;5018937;28;20024;-91
2022/06/08 07:36:28;;;;;;;5.70;2.20;;;17.60;99.90;;;;;;5020701;28;20014;-94
2022/06/08 07:38:53;;;;;;;5.05;2.08;;;17.50;99.90;;;;;;5002790;28;20022;-94
2022/06/08 07:41:19;;;;;;;7.03;2.30;;;17.50;99.90;;;;;;5027292;28;20088;-94
2022/06/08 07:43:45;;;;;;;3.72;1.92;;;17.70;99.90;;;;;;5020606;28;20471;-90
2022/06/08 07:46:11;;;;;;;4.47;1.85;;;18.00;99.90;;;;;;5015836;28;20022;-90
2022/06/08 07:51:21;;;;;;;9.43;2.55;;;18.10;99.90;;;;;;5026977;28;20076;-89
2022/06/08 07:53:46;;;;;;;10.93;2.05;;;18.30;99.90;;;;;;5027210;28;20021;-89
2022/06/08 07:56:12;;;;;;;8.88;1.95;;;18.60;99.90;;;;;;5022704;28;20459;-90
2022/06/08 07:58:38;;;;;;;7.43;1.95;;;18.80;99.90;;;;;;5022555;28;20026;-92
2022/06/08 08:01:04;;;;;;;8.07;1.67;;;18.90;99.90;;;;;;5015355;28;20523;-88
2022/06/08 08:03:30;;;;;;;8.80;1.80;;;18.70;99.90;;;;;;5022780;28;20030;-90
2022/06/08 08:05:55;;;;;;;10.75;1.80;;;18.90;99.90;;;;;;5023235;28;20029;-90
2022/06/08 08:08:21;;;;;;;6.20;1.60;;;18.80;99.90;;;;;;5022924;28;20025;-91
2022/06/08 08:10:47;;;;;;;9.60;2.70;;;18.60;99.90;;;;;;5023709;28;20033;-90
2022/06/08 08:13:14;;;;;;;10.82;2.38;;;18.40;99.90;;;;;;5084617;22;20053;-93
2022/06/08 08:15:41;;;;;;;12.18;1.98;;;18.30;99.90;;;;;;5066244;28;20466;-93
2022/06/08 08:18:08;;;;;;;6.53;1.48;;;18.10;99.90;;;;;;5059656;28;20036;-94
2022/06/08 08:20:34;;;;;;;2.70;1.52;;;18.20;99.90;;;;;;5059322;28;20088;-92
2022/06/08 08:23:00;;;;;;;7.40;1.65;;;18.50;99.90;;;;;;5040751;28;20057;-92
2022/06/08 08:25:27;;;;;;;5.63;1.58;;;18.80;99.90;;;;;;5049926;28;20021;-92
2022/06/08 08:27:54;;;;;;;3.45;1.45;;;19.10;99.90;;;;;;5023721;28;20026;-93
2022/06/08 08:30:23;;;;;;;6.28;2.13;;;19.10;99.90;;;;;;5035311;28;20021;-93
2022/06/08 08:32:49;;;;;;;6.40;1.55;;;18.90;99.90;;;;;;5041958;28;20529;-89
2022/06/08 08:35:16;;;;;;;10.70;1.75;;;18.70;99.90;;;;;;5042070;28;20021;-93
2022/06/08 08:37:43;;;;;;;8.60;1.63;;;18.60;99.90;;;;;;5038070;28;20482;-93
2022/06/08 08:40:38;;;;;;;4.50;1.60;;;18.50;99.90;;;;;;5042499;28;20097;-91
2022/06/08 08:43:07;;;;;;;6.93;1.30;;;18.40;99.90;;;;;;5033326;28;20547;-89
2022/06/08 08:45:42;;;;;;;9.38;1.83;;;18.50;99.90;;;;;;5037385;28;20018;-92
2022/06/08 08:48:19;;;;;;;11.00;2.25;;;18.40;99.90;;;;;;5031257;28;20021;-92
2022/06/08 08:51:06;;;;;;;7.03;1.55;;;18.50;99.90;;;;;;5044889;28;20013;-93
2022/06/08 08:53:50;;;;;;;8.68;1.42;;;18.50;99.90;;;;;;5031205;28;20029;-93
2022/06/08 08:56:25;;;;;;;9.10;1.83;;;19.30;99.90;;;;;;5030082;28;20425;-93
2022/06/08 08:58:51;;;;;;;5.30;1.00;;;19.40;99.90;;;;;;5045370;28;20525;-92
2022/06/08 09:01:26;;;;;;;6.70;1.13;;;19.30;99.90;;;;;;5035634;28;20107;-89
2022/06/08 09:03:56;;;;;;;10.07;1.50;;;19.10;99.90;;;;;;5034715;28;20037;-91
2022/06/08 09:06:27;;;;;;;7.57;1.40;;;18.90;99.90;;;;;;5042270;28;20017;-90
2022/06/08 09:08:58;;;;;;;9.73;1.35;;;19.00;99.90;;;;;;5042365;28;20479;-88
2022/06/08 09:11:30;;;;;;;6.20;1.38;;;19.10;99.90;;;;;;5054603;22;20008;-79
2022/06/08 09:14:15;;;;;;;5.95;1.05;;;19.20;99.90;;;;;;5032502;28;20033;-81
2022/06/08 09:16:47;;;;;;;10.23;1.52;;;19.50;99.90;;;;;;5032637;28;20025;-81
2022/06/08 09:19:24;;;;;;;;;;;20.60;99.90;;;;;;5027903;28;20041;-79
2022/06/08 09:22:11;;;;;;;10.57;2.00;;;21.80;99.90;;;;;;5006353;28;19932;-80
2022/06/08 09:24:53;;;;;;;13.98;1.92;;;22.40;99.90;;;;;;4994556;28;20038;-79
2022/06/08 09:27:50;;;;;;;4.50;0.60;;;23.00;99.90;;;;;;5007128;28;20026;-81
2022/06/08 09:30:18;;;;;;;5.20;1.00;;;24.00;93.50;;;;;;4991276;28;20391;-80
2022/06/08 09:32:51;;;;;;;6.15;0.93;;;24.90;89.30;;;;;;5012434;28;20018;-79
2022/06/08 09:35:26;;;;;;;5.47;0.88;;;24.80;78.80;;;;;;5019567;28;20021;-79
2022/06/08 09:37:55;;;;;;;2.15;0.68;;;23.70;85.10;;;;;;5012610;28;20080;-79
2022/06/08 09:40:40;;;;;;;2.33;0.65;;;23.20;90.60;;;;;;5001639;28;20029;-79
2022/06/08 09:43:23;;;;;;;5.50;0.60;;;23.20;89.80;;;;;;5011768;28;20483;-80
2022/06/08 09:46:04;;;;;;;5.18;0.70;;;23.20;91.80;;;;;;5012505;28;20046;-80
2022/06/08 09:51:50;;;;;;;5.40;0.57;;;22.10;88.60;;;;;;5004887;28;20056;-79
2022/06/08 09:54:31;;;;;;;2.78;0.50;;;21.50;92.70;;;;;;5012216;28;20045;-80
2022/06/08 09:57:21;;;;;;;1.63;0.50;;;21.40;98.10;;;;;;5012147;28;20025;-79
2022/06/08 09:59:55;;;;;;;4.35;0.40;;;22.00;95.80;;;;;;5011980;28;20026;-78
2022/06/08 10:02:28;;;;;;;5.38;0.65;;;22.20;92.30;;;;;;5012337;28;20029;-82
2022/06/08 10:05:47;;;;;;;4.57;0.60;;;22.80;89.00;;;;;;5012421;28;20497;-79
2022/06/08 10:08:25;;;;;;;5.20;1.23;;;22.50;87.50;;;;;;4951395;28;20112;-81
2022/06/08 10:13:45;;;;;;;9.20;1.10;;;20.70;99.20;;;;;;5055877;28;20522;-89
2022/06/08 10:16:18;;;;;;;4.75;0.80;;;20.00;99.90;;;;;;5058763;28;20021;-90
2022/06/08 10:18:51;;;;;;;4.65;1.00;;;19.60;99.90;;;;;;5033397;28;20021;-91
2022/06/08 10:21:26;;;;;;;6.80;0.90;;;19.40;99.90;;;;;;5032133;28;20025;-87
2022/06/08 10:24:20;;;;;;;9.65;2.40;;;19.60;99.90;;;;;;5032428;28;20030;-87
2022/06/08 10:27:05;;;;;;;5.70;1.45;;;21.60;99.90;;;;;;5000839;28;20109;-86
2022/06/08 10:29:57;;;;;;;8.35;1.15;;;22.40;96.40;;;;;;5002154;28;20629;-89
2022/06/08 10:32:32;;;;;;;9.20;1.33;;;22.30;97.40;;;;;;5029124;28;20017;-92
2022/06/08 10:35:02;;;;;;;6.63;1.52;;;22.20;96.90;;;;;;5015208;28;20041;-86
2022/06/08 10:37:39;;;;;;;9.25;1.30;;;23.60;94.40;;;;;;5003779;28;20072;-86
2022/06/08 10:40:15;;;;;;;4.50;1.10;;;24.60;79.50;;;;;;5014253;28;20018;-89
2022/06/08 10:42:48;;;;;;;4.13;0.60;;;24.90;76.40;;;;;;4995255;28;20017;-85
2022/06/08 10:45:23;;;;;;;8.77;1.27;;;24.50;76.10;;;;;;5011695;28;20021;-86
2022/06/08 10:47:59;;;;;;;8.90;1.70;;;23.60;82.00;;;;;;5012059;28;20548;-86
2022/06/08 10:50:27;;;;;;;7.32;1.83;;;22.90;85.00;;;;;;5015892;28;20029;-89
2022/06/08 10:54:52;;;;;;;7.97;1.27;;;22.40;89.80;;;;;;5015837;28;20033;-93
2022/06/08 10:55:41;;;;;;;7.40;1.42;;;21.90;91.40;;;;;;5034786;28;20374;-86
2022/06/08 10:58:11;;;;;;;5.95;0.90;;;22.60;88.40;;;;;;5024457;28;20474;-91
2022/06/08 11:01:04;;;;;;;6.97;0.95;;;23.80;90.80;;;;;;5014234;28;20033;-88
2022/06/08 11:03:40;;;;;;;4.43;0.82;;;24.70;80.60;;;;;;5008361;28;20030;-89
2022/06/08 11:06:44;;;;;;;6.70;1.02;;;24.20;76.20;;;;;;5035340;28;20028;-87
2022/06/08 11:09:19;;;;;;;6.97;1.25;;;23.50;79.50;;;;;;4995930;28;20026;-89
2022/06/08 11:11:49;;;;;;;7.85;1.63;;;22.80;83.00;;;;;;5047779;23;20188;-88
2022/06/08 11:14:25;;;;;;;7.07;1.17;;;21.90;87.40;;;;;;5041965;28;20042;-91
2022/06/08 11:16:55;;;;;;;4.28;1.05;;;21.70;93.40;;;;;;5033399;28;20021;-92
2022/06/08 11:19:23;;;;;;;3.20;1.58;;;21.10;96.10;;;;;;5030834;28;20024;-90
2022/06/08 11:21:51;;;;;;;4.38;0.85;;;21.00;97.40;;;;;;5029991;28;20014;-88
2022/06/08 11:24:44;;;;;;;5.97;1.35;;;22.10;96.10;;;;;;5015548;28;20030;-88
2022/06/08 11:27:10;;;;;;;12.73;1.55;;;23.60;84.80;;;;;;5009458;28;20440;-87
2022/06/08 11:29:51;;;;;;;6.25;0.77;;;24.40;81.60;;;;;;5015439;28;20022;-88
2022/06/08 11:32:33;;;;;;;7.40;1.13;;;26.20;76.70;;;;;;5018420;28;20013;-90
2022/06/08 11:35:21;;;;;;;5.95;1.08;;;27.00;70.30;;;;;;5024038;28;20073;-89
2022/06/08 11:37:58;;;;;;;6.97;1.00;;;26.80;66.00;;;;;;5013000;28;20025;-88
2022/06/08 11:40:27;;;;;;;6.80;1.48;;;26.60;68.80;;;;;;5015192;28;20022;-90
2022/06/08 11:43:15;;;;;;;7.28;1.30;;;26.00;68.20;;;;;;5014573;28;20026;-90
2022/06/08 11:45:44;;;;;;;10.02;1.67;;;26.00;69.20;;;;;;5022617;28;20046;-90
2022/06/08 11:48:24;;;;;;;9.65;1.45;;;27.00;67.10;;;;;;5022916;28;20022;-91
2022/06/08 11:51:08;;;;;;;11.63;1.58;;;28.40;63.90;;;;;;5005015;28;20464;-89
2022/06/08 11:53:39;;;;;;;5.70;1.08;;;28.40;61.00;;;;;;5016367;28;20018;-90
2022/06/08 11:56:32;;;;;;;6.85;1.25;;;28.20;63.40;;;;;;5022069;28;20018;-87
2022/06/08 11:59:03;;;;;;;6.05;0.88;;;28.50;61.10;;;;;;5008945;28;20037;-92
2022/06/08 12:01:46;;;;;;;5.65;1.33;;;27.80;62.80;;;;;;5014908;28;20014;-87
2022/06/08 12:04:23;;;;;;;10.70;1.38;;;26.30;61.70;;;;;;5012668;28;20594;-89
2022/06/08 12:06:49;;;;;;;10.75;1.30;;;25.30;66.50;;;;;;5022077;28;20442;-93
2022/06/08 12:09:34;;;;;;;7.45;0.90;;;25.40;69.10;;;;;;5021877;28;20025;-93
2022/06/08 12:12:18;;;;;;;6.93;1.95;;;24.70;69.80;;;;;;5039178;22;20053;-93
2022/06/08 12:14:44;;;;;;;6.53;1.20;;;24.10;71.90;;;;;;5039925;28;20060;-92
2022/06/08 12:17:10;;;;;;;8.90;1.40;;;23.30;74.60;;;;;;5026151;28;20021;-89
2022/06/08 12:19:48;;;;;;;6.57;0.88;;;23.20;78.50;;;;;;5020401;28;20022;-91
2022/06/08 12:22:17;;;;;;;7.72;1.40;;;22.90;79.80;;;;;;5022629;28;20034;-88
2022/06/08 12:24:45;;;;;;;4.03;0.82;;;23.70;81.50;;;;;;5004978;28;20036;-92
2022/06/08 12:27:18;;;;;;;5.38;1.10;;;24.50;74.00;;;;;;5003823;28;20025;-92
2022/06/08 12:29:52;;;;;;;5.20;1.25;;;23.50;79.30;;;;;;5017513;28;20511;-88
2022/06/08 12:32:20;;;;;;;8.70;2.30;;;21.50;97.50;;;;;;5016980;28;20018;-94
2022/06/08 12:34:51;;;;;;;5.00;1.35;;;20.00;99.90;;;;;;5017489;28;20092;-92
2022/06/08 12:37:28;;;;;;;6.43;1.05;;;18.80;99.90;;;;;;5011104;28;20025;-95
2022/06/08 12:39:56;;;;;;;7.93;1.65;;;18.60;99.90;;;;;;5012933;28;20113;-93
2022/06/08 12:42:34;;;;;;;5.88;1.30;;;18.90;99.90;;;;;;5028011;28;20101;-89
2022/06/08 12:45:01;;;;;;;6.95;1.30;;;19.70;99.90;;;;;;5010331;28;20034;-93
2022/06/08 12:47:42;;;;;;;8.65;1.65;;;20.70;99.90;;;;;;4998552;28;20030;-92
2022/06/08 12:50:11;;;;;;;;;;;23.60;99.90;;;;;;5026214;28;20040;-91
2022/06/08 12:52:37;;;;;;;5.18;0.85;;;26.20;98.00;;;;;;5024375;28;19905;-91
2022/06/08 12:55:15;;;;;;;9.57;1.52;;;26.40;76.00;;;;;;5007163;28;20390;-95
2022/06/08 12:57:44;;;;;;;5.50;1.38;;;27.20;78.30;;;;;;5031098;28;20030;-93
2022/06/08 13:00:36;;;;;;;4.65;0.80;;;28.70;68.90;;;;;;5013688;28;20052;-92
2022/06/08 13:03:14;;;;;;;2.70;0.95;;;29.10;64.00;;;;;;5017476;28;20493;-94
2022/06/08 13:05:40;;;;;;;3.25;0.63;;;29.10;63.10;;;;;;5000941;28;20029;-91
2022/06/08 13:08:06;;;;;;;5.75;0.65;;;29.80;59.80;;;;;;5021320;28;20026;-93
2022/06/08 13:10:32;;;;;;;4.90;0.70;;;30.40;57.40;;;;;;5010175;28;20026;-93
2022/06/08 13:13:03;;;;;;;3.90;0.75;;;31.10;58.10;;;;;;5023133;22;20057;-82
2022/06/08 13:15:44;;;;;;;2.40;0.40;;;32.50;56.30;;;;;;4995319;28;20057;-81
2022/06/08 13:18:16;;;;;;;3.77;0.70;;;31.70;52.50;;;;;;5008056;28;20030;-82
2022/06/08 13:20:42;;;;;;;4.40;0.88;;;31.20;51.80;;;;;;4991277;28;20280;-84
2022/06/08 13:23:09;;;;;;;5.22;0.63;;;31.50;53.20;;;;;;5013138;28;20110;-82
2022/06/08 13:25:36;;;;;;;5.68;0.65;;;31.90;51.40;;;;;;5011331;28;20022;-82